sensor_id;sensor_type;location;lat;lon;timestamp;temperature;humidity
22996;DHT22;11664;49.774;8.650;2023-06-22T00:00:59;23.90;99.90
22996;DHT22;11664;49.774;8.650;2023-06-22T00:03:54;23.90;99.90
22996;DHT22;11664;49.774;8.650;2023-06-22T00:06:26;24.00;99.90
22996;DHT22;11664;49.774;8.650;2023-06-22T00:09:07;24.00;99.90
22996;DHT22;11664;49.774;8.650;2023-06-22T00:11:33;23.80;99.90
22996;DHT22;11664;49.774;8.650;2023-06-22T00:13:59;23.70;99.90
22996;DHT22;11664;49.774;8.650;2023-06-22T00:16:28;23.50;99.90
22996;DHT22;11664;49.774;8.650;2023-06-22T00:19:05;23.40;99.90
22996;DHT22;11664;49.774;8.650;2023-06-22T00:21:34;23.40;99.90
22996;DHT22;11664;49.774;8.650;2023-06-22T00:23:59;23.30;99.90
22996;DHT22;11664;49.774;8.650;2023-06-22T00:26:25;23.20;99.90
22996;DHT22;11664;49.774;8.650;2023-06-22T00:28:53;23.20;99.90
22996;DHT22;11664;49.774;8.650;2023-06-22T00:31:25;23.30;99.90
22996;DHT22;11664;49.774;8.650;2023-06-22T00:33:51;23.30;99.90
22996;DHT22;11664;49.774;8.650;2023-06-22T00:36:16;23.30;99.90
22996;DHT22;11664;49.774;8.650;2023-06-22T00:38:43;23.30;99.90
22996;DHT22;11664;49.774;8.650;2023-06-22T00:41:08;23.20;99.90
22996;DHT22;11664;49.774;8.650;2023-06-22T00:43:46;23.00;99.90
22996;DHT22;11664;49.774;8.650;2023-06-22T00:46:12;22.90;99.90
22996;DHT22;11664;49.774;8.650;2023-06-22T00:48:38;23.00;99.90
22996;DHT22;11664;49.774;8.650;2023-06-22T00:51:06;22.80;99.90
22996;DHT22;11664;49.774;8.650;2023-06-22T00:53:35;22.70;99.90
22996;DHT22;11664;49.774;8.650;2023-06-22T00:56:02;22.60;99.90
22996;DHT22;11664;49.774;8.650;2023-06-22T00:58:32;22.60;99.90
22996;DHT22;11664;49.774;8.650;2023-06-22T01:00:57;22.80;99.90
22996;DHT22;11664;49.774;8.650;2023-06-22T01:03:23;22.70;99.90
22996;DHT22;11664;49.774;8.650;2023-06-22T01:05:49;22.70;99.90
22996;DHT22;11664;49.774;8.650;2023-06-22T01:08:42;22.70;99.90
22996;DHT22;11664;49.774;8.650;2023-06-22T01:11:22;22.60;99.90
22996;DHT22;11664;49.774;8.650;2023-06-22T01:16:41;22.10;99.90
22996;DHT22;11664;49.774;8.650;2023-06-22T01:19:45;22.00;99.90
22996;DHT22;11664;49.774;8.650;2023-06-22T01:22:16;21.90;99.90
22996;DHT22;11664;49.774;8.650;2023-06-22T01:25:12;21.70;99.90
22996;DHT22;11664;49.774;8.650;2023-06-22T01:27:58;21.70;99.90
22996;DHT22;11664;49.774;8.650;2023-06-22T01:30:37;21.50;99.90
22996;DHT22;11664;49.774;8.650;2023-06-22T01:36:27;21.30;99.90
22996;DHT22;11664;49.774;8.650;2023-06-22T01:38:57;21.30;99.90
22996;DHT22;11664;49.774;8.650;2023-06-22T01:41:37;21.30;99.90
22996;DHT22;11664;49.774;8.650;2023-06-22T01:44:09;21.20;99.90
22996;DHT22;11664;49.774;8.650;2023-06-22T01:46:36;21.30;99.90
22996;DHT22;11664;49.774;8.650;2023-06-22T01:49:15;21.30;99.90
22996;DHT22;11664;49.774;8.650;2023-06-22T01:51:41;21.50;99.90
22996;DHT22;11664;49.774;8.650;2023-06-22T01:54:12;21.70;99.90
22996;DHT22;11664;49.774;8.650;2023-06-22T01:56:44;21.60;99.90
22996;DHT22;11664;49.774;8.650;2023-06-22T01:59:29;21.60;99.90
22996;DHT22;11664;49.774;8.650;2023-06-22T02:02:11;21.30;99.90
22996;DHT22;11664;49.774;8.650;2023-06-22T02:04:54;21.30;99.90
22996;DHT22;11664;49.774;8.650;2023-06-22T02:07:29;21.40;99.90
22996;DHT22;11664;49.774;8.650;2023-06-22T02:09:58;21.20;99.90
22996;DHT22;11664;49.774;8.650;2023-06-22T02:12:28;21.20;99.90
22996;DHT22;11664;49.774;8.650;2023-06-22T02:15:01;21.10;99.90
22996;DHT22;11664;49.774;8.650;2023-06-22T02:17:33;21.00;99.90
22996;DHT22;11664;49.774;8.650;2023-06-22T02:20:03;20.90;99.90
22996;DHT22;11664;49.774;8.650;2023-06-22T02:22:37;20.90;99.90
22996;DHT22;11664;49.774;8.650;2023-06-22T02:25:02;20.90;99.90
22996;DHT22;11664;49.774;8.650;2023-06-22T02:27:28;20.80;99.90
22996;DHT22;11664;49.774;8.650;2023-06-22T02:29:53;20.80;99.90
22996;DHT22;11664;49.774;8.650;2023-06-22T02:32:19;20.80;99.90
22996;DHT22;11664;49.774;8.650;2023-06-22T02:34:52;20.80;99.90
22996;DHT22;11664;49.774;8.650;2023-06-22T02:37:36;20.70;99.90
22996;DHT22;11664;49.774;8.650;2023-06-22T02:40:05;20.60;99.90
22996;DHT22;11664;49.774;8.650;2023-06-22T02:42:33;20.50;99.90
22996;DHT22;11664;49.774;8.650;2023-06-22T02:44:59;20.40;99.90
22996;DHT22;11664;49.774;8.650;2023-06-22T02:47:27;20.30;99.90
22996;DHT22;11664;49.774;8.650;2023-06-22T02:49:56;20.20;99.90
22996;DHT22;11664;49.774;8.650;2023-06-22T02:52:22;20.20;99.90
22996;DHT22;11664;49.774;8.650;2023-06-22T02:54:57;20.20;99.90
22996;DHT22;11664;49.774;8.650;2023-06-22T02:57:23;20.20;99.90
22996;DHT22;11664;49.774;8.650;2023-06-22T02:59:55;20.20;99.90
22996;DHT22;11664;49.774;8.650;2023-06-22T03:02:20;20.30;99.90
22996;DHT22;11664;49.774;8.650;2023-06-22T03:08:09;20.20;99.90
22996;DHT22;11664;49.774;8.650;2023-06-22T03:10:37;20.20;99.90
22996;DHT22;11664;49.774;8.650;2023-06-22T03:13:06;20.30;99.90
22996;DHT22;11664;49.774;8.650;2023-06-22T03:15:43;20.20;99.90
22996;DHT22;11664;49.774;8.650;2023-06-22T03:18:09;20.20;99.90
22996;DHT22;11664;49.774;8.650;2023-06-22T03:20:38;20.20;99.90
22996;DHT22;11664;49.774;8.650;2023-06-22T03:23:16;20.30;99.90
22996;DHT22;11664;49.774;8.650;2023-06-22T03:25:42;20.30;99.90
22996;DHT22;11664;49.774;8.650;2023-06-22T03:28:13;20.30;99.90
22996;DHT22;11664;49.774;8.650;2023-06-22T03:30:44;20.30;99.90
22996;DHT22;11664;49.774;8.650;2023-06-22T03:33:10;20.30;99.90
22996;DHT22;11664;49.774;8.650;2023-06-22T03:35:35;20.50;99.90
22996;DHT22;11664;49.774;8.650;2023-06-22T03:38:04;20.50;99.90
22996;DHT22;11664;49.774;8.650;2023-06-22T03:40:29;20.50;99.90
22996;DHT22;11664;49.774;8.650;2023-06-22T03:43:01;20.70;99.90
22996;DHT22;11664;49.774;8.650;2023-06-22T03:45:36;20.80;99.90
22996;DHT22;11664;49.774;8.650;2023-06-22T03:48:02;20.90;99.90
22996;DHT22;11664;49.774;8.650;2023-06-22T03:50:31;21.00;99.90
22996;DHT22;11664;49.774;8.650;2023-06-22T03:53:03;21.10;99.90
22996;DHT22;11664;49.774;8.650;2023-06-22T03:55:29;21.00;99.90
22996;DHT22;11664;49.774;8.650;2023-06-22T03:58:07;20.90;99.90
22996;DHT22;11664;49.774;8.650;2023-06-22T04:00:40;21.00;99.90
22996;DHT22;11664;49.774;8.650;2023-06-22T04:03:09;21.00;99.90
22996;DHT22;11664;49.774;8.650;2023-06-22T04:05:34;21.10;99.90
22996;DHT22;11664;49.774;8.650;2023-06-22T04:08:18;21.00;99.90
22996;DHT22;11664;49.774;8.650;2023-06-22T04:10:52;21.00;99.90
22996;DHT22;11664;49.774;8.650;2023-06-22T04:13:21;21.00;99.90
22996;DHT22;11664;49.774;8.650;2023-06-22T04:15:47;21.00;99.90
22996;DHT22;11664;49.774;8.650;2023-06-22T04:18:13;21.10;99.90
22996;DHT22;11664;49.774;8.650;2023-06-22T04:20:44;21.20;99.90
22996;DHT22;11664;49.774;8.650;2023-06-22T04:23:13;21.20;99.90
22996;DHT22;11664;49.774;8.650;2023-06-22T04:25:39;21.20;99.90
22996;DHT22;11664;49.774;8.650;2023-06-22T04:28:04;21.20;99.90
22996;DHT22;11664;49.774;8.650;2023-06-22T04:30:45;21.20;99.90
22996;DHT22;11664;49.774;8.650;2023-06-22T04:33:34;21.30;99.90
22996;DHT22;11664;49.774;8.650;2023-06-22T04:39:25;21.30;99.90
22996;DHT22;11664;49.774;8.650;2023-06-22T04:41:59;21.40;99.90
22996;DHT22;11664;49.774;8.650;2023-06-22T04:44:32;21.50;99.90
22996;DHT22;11664;49.774;8.650;2023-06-22T04:46:58;21.30;99.90
22996;DHT22;11664;49.774;8.650;2023-06-22T04:49:32;21.30;99.90
22996;DHT22;11664;49.774;8.650;2023-06-22T04:52:21;21.20;99.90
22996;DHT22;11664;49.774;8.650;2023-06-22T04:54:47;21.30;99.90
22996;DHT22;11664;49.774;8.650;2023-06-22T04:57:14;21.30;99.90
22996;DHT22;11664;49.774;8.650;2023-06-22T04:59:39;21.40;99.90
22996;DHT22;11664;49.774;8.650;2023-06-22T05:02:11;21.40;99.90
22996;DHT22;11664;49.774;8.650;2023-06-22T05:04:37;21.40;99.90
22996;DHT22;11664;49.774;8.650;2023-06-22T05:07:06;21.30;99.90
22996;DHT22;11664;49.774;8.650;2023-06-22T05:09:35;21.30;99.90
22996;DHT22;11664;49.774;8.650;2023-06-22T05:12:02;21.20;99.90
22996;DHT22;11664;49.774;8.650;2023-06-22T05:14:29;21.30;99.90
22996;DHT22;11664;49.774;8.650;2023-06-22T05:16:55;21.40;99.90
22996;DHT22;11664;49.774;8.650;2023-06-22T05:19:27;21.50;99.90
22996;DHT22;11664;49.774;8.650;2023-06-22T05:22:04;21.50;99.90
22996;DHT22;11664;49.774;8.650;2023-06-22T05:24:31;21.50;99.90
22996;DHT22;11664;49.774;8.650;2023-06-22T05:26:57;21.50;99.90
22996;DHT22;11664;49.774;8.650;2023-06-22T05:29:23;21.60;99.90
22996;DHT22;11664;49.774;8.650;2023-06-22T05:31:49;21.70;99.90
22996;DHT22;11664;49.774;8.650;2023-06-22T05:34:14;21.60;99.90
22996;DHT22;11664;49.774;8.650;2023-06-22T05:36:43;21.60;99.90
22996;DHT22;11664;49.774;8.650;2023-06-22T05:39:13;21.70;99.90
22996;DHT22;11664;49.774;8.650;2023-06-22T05:41:39;21.90;99.90
22996;DHT22;11664;49.774;8.650;2023-06-22T05:44:04;21.90;99.90
22996;DHT22;11664;49.774;8.650;2023-06-22T05:46:33;21.90;99.90
22996;DHT22;11664;49.774;8.650;2023-06-22T05:48:59;22.00;99.90
22996;DHT22;11664;49.774;8.650;2023-06-22T05:51:24;22.10;99.90
22996;DHT22;11664;49.774;8.650;2023-06-22T05:53:50;22.20;99.90
22996;DHT22;11664;49.774;8.650;2023-06-22T05:56:16;22.40;99.90
22996;DHT22;11664;49.774;8.650;2023-06-22T05:58:42;22.40;99.90
22996;DHT22;11664;49.774;8.650;2023-06-22T06:01:07;22.60;99.90
22996;DHT22;11664;49.774;8.650;2023-06-22T06:03:32;22.50;99.90
22996;DHT22;11664;49.774;8.650;2023-06-22T06:05:58;22.60;99.90
22996;DHT22;11664;49.774;8.650;2023-06-22T06:08:24;22.80;99.90
22996;DHT22;11664;49.774;8.650;2023-06-22T06:10:50;22.80;99.90
22996;DHT22;11664;49.774;8.650;2023-06-22T06:13:18;22.80;99.90
22996;DHT22;11664;49.774;8.650;2023-06-22T06:15:43;22.80;99.90
22996;DHT22;11664;49.774;8.650;2023-06-22T06:18:09;22.80;99.90
22996;DHT22;11664;49.774;8.650;2023-06-22T06:20:34;23.00;99.90
22996;DHT22;11664;49.774;8.650;2023-06-22T06:23:00;22.90;99.90
22996;DHT22;11664;49.774;8.650;2023-06-22T06:25:27;23.10;99.90
22996;DHT22;11664;49.774;8.650;2023-06-22T06:27:55;23.00;99.90
22996;DHT22;11664;49.774;8.650;2023-06-22T06:30:21;23.10;99.90
22996;DHT22;11664;49.774;8.650;2023-06-22T06:32:47;23.30;99.90
22996;DHT22;11664;49.774;8.650;2023-06-22T06:35:19;23.40;99.90
22996;DHT22;11664;49.774;8.650;2023-06-22T06:37:47;23.30;99.90
22996;DHT22;11664;49.774;8.650;2023-06-22T06:40:14;23.40;99.90
22996;DHT22;11664;49.774;8.650;2023-06-22T06:42:44;23.60;99.90
22996;DHT22;11664;49.774;8.650;2023-06-22T06:45:22;23.70;99.90
22996;DHT22;11664;49.774;8.650;2023-06-22T06:47:48;23.90;99.90
22996;DHT22;11664;49.774;8.650;2023-06-22T06:50:18;24.00;99.90
22996;DHT22;11664;49.774;8.650;2023-06-22T06:52:47;24.20;99.90
22996;DHT22;11664;49.774;8.650;2023-06-22T06:55:12;24.00;99.90
22996;DHT22;11664;49.774;8.650;2023-06-22T06:57:39;24.10;99.90
22996;DHT22;11664;49.774;8.650;2023-06-22T07:00:08;23.90;99.90
22996;DHT22;11664;49.774;8.650;2023-06-22T07:02:42;24.10;99.90
22996;DHT22;11664;49.774;8.650;2023-06-22T07:05:12;24.10;99.90
22996;DHT22;11664;49.774;8.650;2023-06-22T07:07:38;24.10;99.90
22996;DHT22;11664;49.774;8.650;2023-06-22T07:10:05;24.30;99.90
22996;DHT22;11664;49.774;8.650;2023-06-22T07:12:31;24.30;99.90
22996;DHT22;11664;49.774;8.650;2023-06-22T07:15:08;24.20;99.90
22996;DHT22;11664;49.774;8.650;2023-06-22T07:17:34;24.30;99.90
22996;DHT22;11664;49.774;8.650;2023-06-22T07:20:01;24.30;99.90
22996;DHT22;11664;49.774;8.650;2023-06-22T07:22:27;24.30;99.90
22996;DHT22;11664;49.774;8.650;2023-06-22T07:24:52;24.30;99.90
22996;DHT22;11664;49.774;8.650;2023-06-22T07:27:21;24.30;99.90
22996;DHT22;11664;49.774;8.650;2023-06-22T07:29:47;24.40;99.90
22996;DHT22;11664;49.774;8.650;2023-06-22T07:32:13;24.40;99.90
22996;DHT22;11664;49.774;8.650;2023-06-22T07:34:38;24.30;99.90
22996;DHT22;11664;49.774;8.650;2023-06-22T07:37:04;24.10;99.90
22996;DHT22;11664;49.774;8.650;2023-06-22T07:39:30;24.30;99.90
22996;DHT22;11664;49.774;8.650;2023-06-22T07:41:55;24.40;99.90
22996;DHT22;11664;49.774;8.650;2023-06-22T07:44:21;24.50;99.90
22996;DHT22;11664;49.774;8.650;2023-06-22T07:46:47;24.70;99.90
22996;DHT22;11664;49.774;8.650;2023-06-22T07:49:12;24.70;99.90
22996;DHT22;11664;49.774;8.650;2023-06-22T07:51:38;24.60;99.90
22996;DHT22;11664;49.774;8.650;2023-06-22T07:54:03;24.70;99.90
22996;DHT22;11664;49.774;8.650;2023-06-22T07:56:29;24.80;99.90
22996;DHT22;11664;49.774;8.650;2023-06-22T07:58:57;24.90;99.90
22996;DHT22;11664;49.774;8.650;2023-06-22T08:01:24;25.00;99.90
22996;DHT22;11664;49.774;8.650;2023-06-22T08:03:49;25.00;99.90
22996;DHT22;11664;49.774;8.650;2023-06-22T08:06:18;25.40;99.90
22996;DHT22;11664;49.774;8.650;2023-06-22T08:08:43;25.50;99.90
22996;DHT22;11664;49.774;8.650;2023-06-22T08:11:16;25.60;99.90
22996;DHT22;11664;49.774;8.650;2023-06-22T08:13:41;25.60;99.90
22996;DHT22;11664;49.774;8.650;2023-06-22T08:16:10;25.60;99.90
22996;DHT22;11664;49.774;8.650;2023-06-22T08:18:36;25.80;99.90
22996;DHT22;11664;49.774;8.650;2023-06-22T08:21:02;25.90;99.90
22996;DHT22;11664;49.774;8.650;2023-06-22T08:23:28;25.90;99.90
22996;DHT22;11664;49.774;8.650;2023-06-22T08:25:53;26.10;99.90
22996;DHT22;11664;49.774;8.650;2023-06-22T08:28:19;26.50;99.90
22996;DHT22;11664;49.774;8.650;2023-06-22T08:30:45;26.40;99.90
22996;DHT22;11664;49.774;8.650;2023-06-22T08:33:11;26.50;99.90
22996;DHT22;11664;49.774;8.650;2023-06-22T08:35:38;26.40;99.90
22996;DHT22;11664;49.774;8.650;2023-06-22T08:38:10;26.50;99.90
22996;DHT22;11664;49.774;8.650;2023-06-22T08:40:36;26.50;99.90
22996;DHT22;11664;49.774;8.650;2023-06-22T08:43:04;26.60;99.90
22996;DHT22;11664;49.774;8.650;2023-06-22T08:45:30;26.70;99.90
22996;DHT22;11664;49.774;8.650;2023-06-22T08:47:56;26.90;99.90
22996;DHT22;11664;49.774;8.650;2023-06-22T08:50:22;26.90;99.90
22996;DHT22;11664;49.774;8.650;2023-06-22T08:52:47;27.00;99.90
22996;DHT22;11664;49.774;8.650;2023-06-22T08:55:13;27.10;99.90
22996;DHT22;11664;49.774;8.650;2023-06-22T08:57:42;27.60;99.90
22996;DHT22;11664;49.774;8.650;2023-06-22T09:00:09;27.60;99.90
22996;DHT22;11664;49.774;8.650;2023-06-22T09:02:46;27.40;99.90
22996;DHT22;11664;49.774;8.650;2023-06-22T09:05:12;27.10;99.90
22996;DHT22;11664;49.774;8.650;2023-06-22T09:07:38;27.00;99.90
22996;DHT22;11664;49.774;8.650;2023-06-22T09:10:04;27.20;99.90
22996;DHT22;11664;49.774;8.650;2023-06-22T09:12:31;27.10;99.90
22996;DHT22;11664;49.774;8.650;2023-06-22T09:14:58;27.30;99.90
22996;DHT22;11664;49.774;8.650;2023-06-22T09:17:25;27.80;99.90
22996;DHT22;11664;49.774;8.650;2023-06-22T09:19:51;28.00;99.90
22996;DHT22;11664;49.774;8.650;2023-06-22T09:22:20;28.10;99.90
22996;DHT22;11664;49.774;8.650;2023-06-22T09:24:46;27.90;99.90
22996;DHT22;11664;49.774;8.650;2023-06-22T09:27:11;27.60;99.90
22996;DHT22;11664;49.774;8.650;2023-06-22T09:29:37;27.90;99.90
22996;DHT22;11664;49.774;8.650;2023-06-22T09:32:03;28.20;99.90
22996;DHT22;11664;49.774;8.650;2023-06-22T09:34:28;28.50;99.90
22996;DHT22;11664;49.774;8.650;2023-06-22T09:36:57;28.40;99.90
22996;DHT22;11664;49.774;8.650;2023-06-22T09:39:25;28.60;99.90
22996;DHT22;11664;49.774;8.650;2023-06-22T09:41:51;29.00;99.90
22996;DHT22;11664;49.774;8.650;2023-06-22T09:44:16;29.00;99.90
22996;DHT22;11664;49.774;8.650;2023-06-22T09:46:42;29.30;99.90
22996;DHT22;11664;49.774;8.650;2023-06-22T09:49:14;29.30;99.90
22996;DHT22;11664;49.774;8.650;2023-06-22T09:51:39;29.30;99.90
22996;DHT22;11664;49.774;8.650;2023-06-22T09:54:05;29.60;99.90
22996;DHT22;11664;49.774;8.650;2023-06-22T09:56:30;29.20;99.90
22996;DHT22;11664;49.774;8.650;2023-06-22T09:58:56;29.50;99.90
22996;DHT22;11664;49.774;8.650;2023-06-22T10:01:22;29.90;99.90
22996;DHT22;11664;49.774;8.650;2023-06-22T10:03:48;30.00;99.90
22996;DHT22;11664;49.774;8.650;2023-06-22T10:06:16;30.50;99.90
22996;DHT22;11664;49.774;8.650;2023-06-22T10:08:42;30.50;99.90
22996;DHT22;11664;49.774;8.650;2023-06-22T10:11:07;30.60;99.90
22996;DHT22;11664;49.774;8.650;2023-06-22T10:13:33;30.30;99.90
22996;DHT22;11664;49.774;8.650;2023-06-22T10:15:58;30.00;99.90
22996;DHT22;11664;49.774;8.650;2023-06-22T10:18:24;30.00;99.90
22996;DHT22;11664;49.774;8.650;2023-06-22T10:20:52;30.00;99.90
22996;DHT22;11664;49.774;8.650;2023-06-22T10:23:18;30.40;99.90
22996;DHT22;11664;49.774;8.650;2023-06-22T10:25:44;30.10;99.90
22996;DHT22;11664;49.774;8.650;2023-06-22T10:28:16;30.40;99.90
22996;DHT22;11664;49.774;8.650;2023-06-22T10:30:42;30.40;99.90
22996;DHT22;11664;49.774;8.650;2023-06-22T10:33:09;30.50;99.90
22996;DHT22;11664;49.774;8.650;2023-06-22T10:35:35;30.40;99.90
22996;DHT22;11664;49.774;8.650;2023-06-22T10:38:03;30.60;99.90
22996;DHT22;11664;49.774;8.650;2023-06-22T10:40:28;31.30;99.90
22996;DHT22;11664;49.774;8.650;2023-06-22T10:42:57;31.80;99.90
22996;DHT22;11664;49.774;8.650;2023-06-22T10:45:23;31.50;99.90
22996;DHT22;11664;49.774;8.650;2023-06-22T10:47:48;32.10;99.90
22996;DHT22;11664;49.774;8.650;2023-06-22T10:50:18;31.40;99.90
22996;DHT22;11664;49.774;8.650;2023-06-22T10:52:43;31.30;99.90
22996;DHT22;11664;49.774;8.650;2023-06-22T10:55:09;31.00;99.90
22996;DHT22;11664;49.774;8.650;2023-06-22T10:57:35;31.10;99.90
22996;DHT22;11664;49.774;8.650;2023-06-22T11:00:02;31.50;99.90
22996;DHT22;11664;49.774;8.650;2023-06-22T11:02:31;32.00;99.90
22996;DHT22;11664;49.774;8.650;2023-06-22T11:04:56;32.00;99.90
22996;DHT22;11664;49.774;8.650;2023-06-22T11:07:25;32.30;99.90
22996;DHT22;11664;49.774;8.650;2023-06-22T11:09:52;31.40;99.90
22996;DHT22;11664;49.774;8.650;2023-06-22T11:12:18;32.10;99.90
22996;DHT22;11664;49.774;8.650;2023-06-22T11:14:43;32.10;99.90
22996;DHT22;11664;49.774;8.650;2023-06-22T11:17:12;32.20;99.90
22996;DHT22;11664;49.774;8.650;2023-06-22T11:19:38;32.10;99.90
22996;DHT22;11664;49.774;8.650;2023-06-22T11:22:09;32.50;99.90
22996;DHT22;11664;49.774;8.650;2023-06-22T11:24:35;32.60;99.90
22996;DHT22;11664;49.774;8.650;2023-06-22T11:27:00;32.50;99.90
22996;DHT22;11664;49.774;8.650;2023-06-22T11:29:26;33.00;99.90
22996;DHT22;11664;49.774;8.650;2023-06-22T11:31:57;33.60;99.90
22996;DHT22;11664;49.774;8.650;2023-06-22T11:34:23;33.40;99.10
22996;DHT22;11664;49.774;8.650;2023-06-22T11:36:48;32.80;99.90
22996;DHT22;11664;49.774;8.650;2023-06-22T11:39:14;32.90;99.90
22996;DHT22;11664;49.774;8.650;2023-06-22T11:41:43;33.20;99.90
22996;DHT22;11664;49.774;8.650;2023-06-22T11:44:08;33.20;99.20
22996;DHT22;11664;49.774;8.650;2023-06-22T11:46:40;33.20;99.50
22996;DHT22;11664;49.774;8.650;2023-06-22T11:49:06;33.30;99.90
22996;DHT22;11664;49.774;8.650;2023-06-22T11:51:31;33.20;99.90
22996;DHT22;11664;49.774;8.650;2023-06-22T11:53:57;33.80;98.40
22996;DHT22;11664;49.774;8.650;2023-06-22T11:56:23;34.30;99.20
22996;DHT22;11664;49.774;8.650;2023-06-22T11:58:48;34.30;98.80
22996;DHT22;11664;49.774;8.650;2023-06-22T12:01:14;34.40;97.00
22996;DHT22;11664;49.774;8.650;2023-06-22T12:03:46;33.80;98.00
22996;DHT22;11664;49.774;8.650;2023-06-22T12:06:15;33.50;98.20
22996;DHT22;11664;49.774;8.650;2023-06-22T12:08:40;33.30;99.10
22996;DHT22;11664;49.774;8.650;2023-06-22T12:11:06;33.90;98.80
22996;DHT22;11664;49.774;8.650;2023-06-22T12:13:31;34.10;98.30
22996;DHT22;11664;49.774;8.650;2023-06-22T12:15:57;34.20;97.30
22996;DHT22;11664;49.774;8.650;2023-06-22T12:18:25;34.00;97.60
22996;DHT22;11664;49.774;8.650;2023-06-22T12:20:53;34.10;96.80
22996;DHT22;11664;49.774;8.650;2023-06-22T12:23:19;34.20;95.70
22996;DHT22;11664;49.774;8.650;2023-06-22T12:25:45;34.10;95.10
22996;DHT22;11664;49.774;8.650;2023-06-22T12:28:14;33.90;95.20
22996;DHT22;11664;49.774;8.650;2023-06-22T12:30:45;33.90;96.60
22996;DHT22;11664;49.774;8.650;2023-06-22T12:33:11;33.40;95.60
22996;DHT22;11664;49.774;8.650;2023-06-22T12:35:36;33.90;95.80
22996;DHT22;11664;49.774;8.650;2023-06-22T12:38:02;33.80;96.30
22996;DHT22;11664;49.774;8.650;2023-06-22T12:40:28;33.70;95.50
22996;DHT22;11664;49.774;8.650;2023-06-22T12:42:57;33.10;96.10
22996;DHT22;11664;49.774;8.650;2023-06-22T12:45:50;32.90;95.90
22996;DHT22;11664;49.774;8.650;2023-06-22T12:48:16;32.70;95.60
22996;DHT22;11664;49.774;8.650;2023-06-22T12:50:42;33.10;96.10
22996;DHT22;11664;49.774;8.650;2023-06-22T12:53:07;33.70;95.50
22996;DHT22;11664;49.774;8.650;2023-06-22T12:55:33;34.00;94.10
22996;DHT22;11664;49.774;8.650;2023-06-22T12:57:59;33.70;93.80
22996;DHT22;11664;49.774;8.650;2023-06-22T13:00:27;33.50;93.30
22996;DHT22;11664;49.774;8.650;2023-06-22T13:02:56;33.50;94.20
22996;DHT22;11664;49.774;8.650;2023-06-22T13:05:21;33.30;94.00
22996;DHT22;11664;49.774;8.650;2023-06-22T13:07:47;33.00;94.30
22996;DHT22;11664;49.774;8.650;2023-06-22T13:10:15;32.90;94.80
22996;DHT22;11664;49.774;8.650;2023-06-22T13:12:41;32.80;94.70
22996;DHT22;11664;49.774;8.650;2023-06-22T13:15:07;32.80;94.00
22996;DHT22;11664;49.774;8.650;2023-06-22T13:17:33;33.00;93.40
22996;DHT22;11664;49.774;8.650;2023-06-22T13:20:01;33.20;94.10
22996;DHT22;11664;49.774;8.650;2023-06-22T13:22:35;33.50;93.90
22996;DHT22;11664;49.774;8.650;2023-06-22T13:25:09;33.50;93.40
22996;DHT22;11664;49.774;8.650;2023-06-22T13:27:41;34.10;92.20
22996;DHT22;11664;49.774;8.650;2023-06-22T13:30:08;34.30;91.70
22996;DHT22;11664;49.774;8.650;2023-06-22T13:32:33;34.30;91.50
22996;DHT22;11664;49.774;8.650;2023-06-22T13:34:59;33.70;90.70
22996;DHT22;11664;49.774;8.650;2023-06-22T13:37:25;34.30;92.10
22996;DHT22;11664;49.774;8.650;2023-06-22T13:39:54;34.90;91.40
22996;DHT22;11664;49.774;8.650;2023-06-22T13:42:21;35.10;90.80
22996;DHT22;11664;49.774;8.650;2023-06-22T13:44:46;35.50;89.60
22996;DHT22;11664;49.774;8.650;2023-06-22T13:47:15;35.00;88.90
22996;DHT22;11664;49.774;8.650;2023-06-22T13:49:41;35.50;90.40
22996;DHT22;11664;49.774;8.650;2023-06-22T13:52:15;35.90;87.10
22996;DHT22;11664;49.774;8.650;2023-06-22T13:54:44;35.90;85.80
22996;DHT22;11664;49.774;8.650;2023-06-22T13:57:09;36.20;85.70
22996;DHT22;11664;49.774;8.650;2023-06-22T13:59:41;36.70;84.90
22996;DHT22;11664;49.774;8.650;2023-06-22T14:02:13;36.40;83.80
22996;DHT22;11664;49.774;8.650;2023-06-22T14:04:38;35.70;82.70
22996;DHT22;11664;49.774;8.650;2023-06-22T14:07:07;36.00;85.20
22996;DHT22;11664;49.774;8.650;2023-06-22T14:09:33;35.90;81.70
22996;DHT22;11664;49.774;8.650;2023-06-22T14:12:03;35.90;81.40
22996;DHT22;11664;49.774;8.650;2023-06-22T14:14:28;36.50;81.60
22996;DHT22;11664;49.774;8.650;2023-06-22T14:16:54;36.40;82.20
22996;DHT22;11664;49.774;8.650;2023-06-22T14:19:19;36.20;76.60
22996;DHT22;11664;49.774;8.650;2023-06-22T14:21:45;35.90;77.90
22996;DHT22;11664;49.774;8.650;2023-06-22T14:24:10;36.00;77.90
22996;DHT22;11664;49.774;8.650;2023-06-22T14:26:38;36.20;79.00
22996;DHT22;11664;49.774;8.650;2023-06-22T14:29:04;36.80;79.70
22996;DHT22;11664;49.774;8.650;2023-06-22T14:31:29;36.80;79.90
22996;DHT22;11664;49.774;8.650;2023-06-22T14:33:55;37.30;80.10
22996;DHT22;11664;49.774;8.650;2023-06-22T14:36:20;37.00;80.10
22996;DHT22;11664;49.774;8.650;2023-06-22T14:38:46;37.60;79.30
22996;DHT22;11664;49.774;8.650;2023-06-22T14:41:15;36.90;76.80
22996;DHT22;11664;49.774;8.650;2023-06-22T14:43:46;36.00;79.70
22996;DHT22;11664;49.774;8.650;2023-06-22T14:46:16;35.70;80.40
22996;DHT22;11664;49.774;8.650;2023-06-22T14:48:42;35.00;82.20
22996;DHT22;11664;49.774;8.650;2023-06-22T14:51:09;34.50;83.40
22996;DHT22;11664;49.774;8.650;2023-06-22T14:53:35;34.60;83.90
22996;DHT22;11664;49.774;8.650;2023-06-22T14:56:01;34.50;85.10
22996;DHT22;11664;49.774;8.650;2023-06-22T14:58:28;35.50;83.60
22996;DHT22;11664;49.774;8.650;2023-06-22T15:00:54;36.00;85.00
22996;DHT22;11664;49.774;8.650;2023-06-22T15:06:26;36.10;82.00
22996;DHT22;11664;49.774;8.650;2023-06-22T15:08:52;36.00;82.10
22996;DHT22;11664;49.774;8.650;2023-06-22T15:11:18;35.90;81.10
22996;DHT22;11664;49.774;8.650;2023-06-22T15:13:43;35.60;81.10
22996;DHT22;11664;49.774;8.650;2023-06-22T15:16:09;35.60;81.30
22996;DHT22;11664;49.774;8.650;2023-06-22T15:18:35;35.60;82.50
22996;DHT22;11664;49.774;8.650;2023-06-22T15:21:04;35.60;82.40
22996;DHT22;11664;49.774;8.650;2023-06-22T15:23:30;35.90;82.70
22996;DHT22;11664;49.774;8.650;2023-06-22T15:25:56;35.90;81.20
22996;DHT22;11664;49.774;8.650;2023-06-22T15:28:22;36.30;82.40
22996;DHT22;11664;49.774;8.650;2023-06-22T15:30:48;35.20;82.40
22996;DHT22;11664;49.774;8.650;2023-06-22T15:33:14;34.50;84.10
22996;DHT22;11664;49.774;8.650;2023-06-22T15:35:44;35.10;82.60
22996;DHT22;11664;49.774;8.650;2023-06-22T15:38:12;36.10;78.90
22996;DHT22;11664;49.774;8.650;2023-06-22T15:40:38;36.10;78.80
22996;DHT22;11664;49.774;8.650;2023-06-22T15:43:03;36.50;79.20
22996;DHT22;11664;49.774;8.650;2023-06-22T15:45:29;36.10;79.10
22996;DHT22;11664;49.774;8.650;2023-06-22T15:47:55;35.00;78.90
22996;DHT22;11664;49.774;8.650;2023-06-22T15:50:20;34.00;81.50
22996;DHT22;11664;49.774;8.650;2023-06-22T15:52:46;33.50;85.50